Time;durP1;ratioP1;P1;durP2;ratioP2;P2;SDS_P1;SDS_P2;PMS_P1;PMS_P2;Temp;Humidity;BMP_temperature;BMP_pressure;BME280_temperature;BME280_humidity;BME280_pressure;Samples;Min_cycle;Max_cycle;Signal;HPM_P1;HPM_P2
2022/10/30 00:00:25;;;;;;;11.32;6.82;;;;;;;17.10;70.95;96089.88;5050562;28;20221;-85
2022/10/30 00:02:53;;;;;;;9.38;6.80;;;;;;;17.17;70.51;96090.66;5051965;28;20836;-85
2022/10/30 00:05:20;;;;;;;15.02;6.80;;;;;;;17.17;70.62;96088.03;5052037;28;20249;-85
2022/10/30 00:07:47;;;;;;;10.90;6.07;;;;;;;17.13;70.61;96084.25;5051011;28;20197;-85
2022/10/30 00:10:13;;;;;;;11.32;6.03;;;;;;;17.10;70.43;96086.50;5050715;28;20217;-85
2022/10/30 00:12:40;;;;;;;15.00;6.30;;;;;;;17.03;70.71;96085.69;5051422;28;20209;-84
2022/10/30 00:15:08;;;;;;;10.05;6.38;;;;;;;17.07;70.37;96077.28;5051322;28;20205;-85
2022/10/30 00:17:34;;;;;;;9.90;5.75;;;;;;;17.10;70.24;96081.28;5051244;28;20197;-86
2022/10/30 00:20:02;;;;;;;10.73;5.78;;;;;;;17.02;70.68;96087.50;5050770;28;20221;-85
2022/10/30 00:22:29;;;;;;;10.05;6.40;;;;;;;17.04;70.29;96084.69;5051695;28;20293;-85
2022/10/30 00:24:55;;;;;;;8.70;5.75;;;;;;;17.10;70.13;96086.50;5051285;28;20198;-85
2022/10/30 00:27:22;;;;;;;8.63;5.82;;;;;;;17.04;70.28;96093.28;5051204;28;20204;-85
2022/10/30 00:29:48;;;;;;;8.20;5.50;;;;;;;17.10;69.95;96091.69;5050690;28;20633;-85
2022/10/30 00:32:15;;;;;;;11.00;5.72;;;;;;;17.08;69.84;96091.09;5051051;28;20194;-85
2022/10/30 00:34:41;;;;;;;9.73;5.30;;;;;;;17.00;70.41;96088.69;5051696;28;20194;-86
2022/10/30 00:37:09;;;;;;;9.63;5.68;;;;;;;16.71;71.35;96084.75;5051427;28;20205;-85
2022/10/30 00:39:36;;;;;;;8.15;5.28;;;;;;;16.53;72.51;96083.56;5051292;28;20229;-85
2022/10/30 00:42:02;;;;;;;13.40;5.88;;;;;;;16.54;71.74;96085.16;5051042;28;20186;-85
2022/10/30 00:44:40;;;;;;;11.02;5.68;;;;;;;16.59;72.03;96089.72;5050956;28;20212;-84
2022/10/30 00:47:12;;;;;;;11.40;5.32;;;;;;;16.27;73.71;96088.75;5049397;28;20197;-86
2022/10/30 00:49:47;;;;;;;10.35;5.43;;;;;;;15.99;74.88;96086.31;5051226;28;20438;-85
2022/10/30 00:52:15;;;;;;;9.98;5.80;;;;;;;16.02;74.70;96079.91;5045018;28;20200;-85
2022/10/30 00:54:41;;;;;;;8.38;5.45;;;;;;;16.07;74.03;96072.34;5054354;28;20193;-85
2022/10/30 00:57:09;;;;;;;9.50;5.32;;;;;;;16.19;73.97;96076.72;5054563;28;20186;-87
2022/10/30 00:59:37;;;;;;;10.95;5.90;;;;;;;15.97;75.19;96075.31;5054113;28;20225;-85
2022/10/30 01:02:04;;;;;;;10.27;5.45;;;;;;;15.77;76.05;96077.91;5054053;28;20197;-85
2022/10/30 01:04:33;;;;;;;12.18;5.78;;;;;;;15.81;75.52;96080.88;5054762;28;20216;-86
2022/10/30 01:07:09;;;;;;;7.95;4.68;;;;;;;15.95;75.25;96085.13;5054421;28;20221;-85
2022/10/30 01:09:37;;;;;;;11.15;5.50;;;;;;;16.08;74.62;96089.53;5054687;28;20205;-85
2022/10/30 01:12:04;;;;;;;10.68;5.45;;;;;;;16.22;73.94;96091.13;5052933;28;20293;-85
2022/10/30 01:14:32;;;;;;;11.60;5.20;;;;;;;16.26;73.90;96081.94;5054820;28;20206;-84
2022/10/30 01:17:11;;;;;;;11.55;5.18;;;;;;;16.32;73.34;96085.56;5053935;28;20190;-85
2022/10/30 01:19:44;;;;;;;9.70;5.40;;;;;;;16.33;72.90;96081.97;5053901;28;20249;-86
2022/10/30 01:22:25;;;;;;;9.13;4.63;;;;;;;16.34;73.27;96086.16;5054361;28;20707;-83
2022/10/30 01:25:03;;;;;;;10.20;5.10;;;;;;;16.32;73.20;96088.16;5054428;28;20197;-85
2022/10/30 01:27:39;;;;;;;9.23;5.75;;;;;;;16.35;72.16;96088.56;5054693;28;20190;-86
2022/10/30 01:30:16;;;;;;;9.57;4.88;;;;;;;16.26;72.31;96089.75;5052785;28;20232;-86
2022/10/30 01:32:55;;;;;;;9.25;4.85;;;;;;;16.18;72.89;96093.31;5053433;28;20208;-85
2022/10/30 01:35:28;;;;;;;8.85;4.75;;;;;;;16.27;72.23;96088.75;5048990;28;20209;-86
2022/10/30 01:37:59;;;;;;;8.95;5.25;;;;;;;16.15;72.49;96098.13;5054347;28;20211;-85
2022/10/30 01:40:27;;;;;;;9.75;4.45;;;;;;;16.14;71.97;96096.53;5053812;28;20221;-85
2022/10/30 01:42:55;;;;;;;11.95;5.03;;;;;;;16.12;72.00;96094.13;5055112;28;20196;-85
2022/10/30 01:45:32;;;;;;;10.32;4.78;;;;;;;16.09;72.14;96099.72;5053941;28;20288;-85
2022/10/30 01:48:16;;;;;;;10.23;4.80;;;;;;;16.03;71.69;96099.69;5052942;28;20208;-85
2022/10/30 01:50:52;;;;;;;9.23;5.25;;;;;;;15.95;71.59;96100.72;5053707;28;20223;-85
2022/10/30 01:53:36;;;;;;;12.02;4.82;;;;;;;15.93;71.58;96100.09;5048138;28;20614;-86
2022/10/30 01:56:17;;;;;;;12.63;5.57;;;;;;;15.88;72.13;96092.88;5053678;28;20220;-86
2022/10/30 01:58:51;;;;;;;12.60;5.30;;;;;;;15.88;72.39;96097.28;5053810;28;20203;-86
2022/10/30 02:01:18;;;;;;;10.95;5.50;;;;;;;15.86;72.33;96096.69;5047524;28;20217;-88
2022/10/30 02:03:46;;;;;;;8.93;5.57;;;;;;;15.90;72.39;96095.28;5053675;28;20189;-85
2022/10/30 02:06:13;;;;;;;11.60;5.25;;;;;;;15.86;72.16;96092.28;5053691;28;20192;-86
2022/10/30 02:08:39;;;;;;;8.30;5.40;;;;;;;15.88;71.89;96092.09;5053642;28;20197;-84
2022/10/30 02:11:10;;;;;;;12.00;5.20;;;;;;;15.80;72.29;96092.25;5053102;28;20225;-84
2022/10/30 02:13:36;;;;;;;10.65;5.82;;;;;;;15.80;72.34;96097.44;5053984;28;20182;-86
2022/10/30 02:16:03;;;;;;;8.82;5.68;;;;;;;15.77;72.39;96095.28;5053223;28;20213;-85
2022/10/30 02:18:29;;;;;;;10.65;5.28;;;;;;;15.84;72.06;96088.28;5053562;28;20202;-83
2022/10/30 02:20:57;;;;;;;12.20;5.60;;;;;;;15.80;72.08;96090.47;5052552;28;20213;-85
2022/10/30 02:23:24;;;;;;;10.10;5.25;;;;;;;15.79;72.24;96083.66;5054050;28;20197;-86
2022/10/30 02:25:50;;;;;;;10.00;5.90;;;;;;;15.83;72.65;96086.69;5052854;28;20197;-84
2022/10/30 02:28:17;;;;;;;10.57;5.55;;;;;;;15.86;72.24;96081.91;5053124;28;20201;-85
2022/10/30 02:30:43;;;;;;;9.77;5.45;;;;;;;15.88;72.67;96084.28;5051484;28;20292;-86
2022/10/30 02:33:10;;;;;;;12.10;5.32;;;;;;;15.92;72.57;96082.91;5052850;28;20198;-84
2022/10/30 02:35:37;;;;;;;10.07;5.55;;;;;;;16.02;72.48;96082.50;5052677;28;20193;-84
2022/10/30 02:38:04;;;;;;;12.13;5.93;;;;;;;16.07;72.33;96074.94;5052523;28;20201;-85
2022/10/30 02:40:31;;;;;;;11.18;6.07;;;;;;;16.11;71.99;96079.53;5052747;28;20232;-85
2022/10/30 02:42:58;;;;;;;11.80;5.38;;;;;;;16.15;71.84;96075.56;5052268;28;20205;-83
2022/10/30 02:45:24;;;;;;;12.20;6.18;;;;;;;16.09;71.89;96081.53;5052341;28;20724;-85
2022/10/30 02:47:51;;;;;;;9.43;6.25;;;;;;;16.06;72.11;96081.13;5050824;28;20200;-86
2022/10/30 02:50:17;;;;;;;8.00;5.45;;;;;;;16.04;71.85;96076.13;5051997;28;20683;-85
2022/10/30 02:52:44;;;;;;;11.25;5.82;;;;;;;16.00;71.67;96085.31;5052218;28;20197;-86
2022/10/30 02:55:12;;;;;;;9.43;5.43;;;;;;;15.94;71.94;96080.13;5051942;28;20319;-85
2022/10/30 02:57:38;;;;;;;9.57;5.45;;;;;;;15.86;72.44;96078.50;5052147;28;20208;-84
2022/10/30 03:00:06;;;;;;;8.88;5.70;;;;;;;15.86;71.92;96079.31;5051325;28;20224;-82
2022/10/30 03:02:33;;;;;;;10.15;5.82;;;;;;;15.76;72.65;96071.09;5052514;28;20200;-84
2022/10/30 03:04:59;;;;;;;11.40;5.60;;;;;;;15.75;72.98;96073.91;5052560;28;20229;-85
2022/10/30 03:07:26;;;;;;;12.75;5.72;;;;;;;15.73;72.91;96078.47;5052165;28;20193;-86
2022/10/30 03:09:53;;;;;;;9.70;6.00;;;;;;;15.78;72.87;96079.47;5052442;28;20213;-86
2022/10/30 03:12:21;;;;;;;9.95;5.55;;;;;;;15.82;73.10;96080.69;5046753;28;20365;-85
2022/10/30 03:14:48;;;;;;;9.73;5.32;;;;;;;15.80;72.76;96079.28;5052438;28;20204;-85
2022/10/30 03:17:14;;;;;;;8.57;5.57;;;;;;;15.72;73.53;96079.47;5052119;28;20197;-85
2022/10/30 03:19:41;;;;;;;8.82;5.57;;;;;;;15.74;73.02;96078.28;5052285;28;20205;-85
2022/10/30 03:22:07;;;;;;;13.68;5.57;;;;;;;15.74;73.17;96072.28;5052594;28;20197;-85
2022/10/30 03:24:34;;;;;;;8.40;5.78;;;;;;;15.69;73.15;96079.84;5052372;28;20198;-85
2022/10/30 03:27:00;;;;;;;9.85;6.03;;;;;;;15.67;73.30;96072.25;5051983;28;20198;-86
2022/10/30 03:29:28;;;;;;;12.30;5.72;;;;;;;15.71;72.80;96067.50;5052017;28;20722;-84
2022/10/30 03:31:55;;;;;;;14.20;5.78;;;;;;;15.72;72.65;96072.47;5051356;28;20197;-85
2022/10/30 03:34:21;;;;;;;12.85;6.20;;;;;;;15.74;72.53;96065.31;5090119;22;20251;-81
2022/10/30 03:36:48;;;;;;;10.40;5.78;;;;;;;15.77;72.33;96061.53;5073508;28;20200;-81
2022/10/30 03:39:14;;;;;;;14.43;5.80;;;;;;;15.79;72.18;96062.09;5073876;28;20680;-82
2022/10/30 03:41:42;;;;;;;13.15;6.03;;;;;;;15.78;71.98;96056.09;5072861;28;20212;-81
2022/10/30 03:44:08;;;;;;;5.70;5.10;;;;;;;15.72;72.31;96061.28;5071213;28;20811;-82
2022/10/30 03:46:37;;;;;;;8.77;5.85;;;;;;;15.68;72.39;96058.28;5070350;28;20228;-81
2022/10/30 03:49:04;;;;;;;9.63;5.90;;;;;;;15.59;72.75;96053.50;5070438;28;20631;-80
2022/10/30 03:51:30;;;;;;;11.05;5.90;;;;;;;15.61;72.76;96059.25;5070242;28;20192;-82
2022/10/30 03:53:57;;;;;;;9.45;5.65;;;;;;;15.60;72.90;96055.84;5070108;28;20213;-82
2022/10/30 03:56:23;;;;;;;8.15;5.38;;;;;;;15.50;72.69;96066.59;5070138;28;20193;-81
2022/10/30 03:58:50;;;;;;;10.27;5.80;;;;;;;15.29;73.64;96066.72;5069959;28;20196;-81
2022/10/30 04:01:17;;;;;;;11.07;5.90;;;;;;;15.34;73.30;96068.75;5070182;28;20217;-82
2022/10/30 04:03:44;;;;;;;8.68;5.20;;;;;;;15.41;73.30;96077.34;5070105;28;20220;-82
2022/10/30 04:06:11;;;;;;;12.20;5.80;;;;;;;15.43;72.98;96072.75;5070088;28;20227;-82
2022/10/30 04:08:38;;;;;;;12.25;5.85;;;;;;;15.45;72.94;96079.34;5070140;28;20568;-81
2022/10/30 04:11:04;;;;;;;10.85;5.57;;;;;;;15.45;72.73;96081.94;5069924;28;20207;-82
2022/10/30 04:13:31;;;;;;;10.23;5.82;;;;;;;15.36;72.82;96074.53;5070253;28;20240;-81
2022/10/30 04:15:57;;;;;;;10.60;5.88;;;;;;;15.27;73.43;96076.50;5070023;28;20192;-82
2022/10/30 04:18:25;;;;;;;8.40;5.38;;;;;;;15.00;73.87;96078.19;5070177;28;20638;-82
2022/10/30 04:20:53;;;;;;;12.93;6.05;;;;;;;14.90;74.78;96077.72;5069304;28;20716;-81
2022/10/30 04:23:20;;;;;;;8.63;5.70;;;;;;;14.92;74.65;96074.94;5070321;28;20213;-82
2022/10/30 04:25:47;;;;;;;9.40;5.57;;;;;;;15.03;74.28;96080.34;5070165;28;20193;-81
2022/10/30 04:28:15;;;;;;;9.32;5.50;;;;;;;15.08;73.99;96075.41;5070186;28;20208;-83
2022/10/30 04:30:41;;;;;;;8.93;5.45;;;;;;;14.99;74.05;96070.59;5074353;28;20189;-82
2022/10/30 04:33:11;;;;;;;7.93;5.15;;;;;;;15.05;73.75;96075.78;5073244;28;20228;-81
2022/10/30 04:35:38;;;;;;;6.63;5.20;;;;;;;15.07;73.87;96078.19;5074416;28;20197;-81
2022/10/30 04:38:09;;;;;;;9.00;5.18;;;;;;;15.15;73.35;96072.84;5073883;28;20205;-82
2022/10/30 04:40:37;;;;;;;10.10;5.30;;;;;;;15.22;73.02;96078.84;5073672;28;20306;-80
2022/10/30 04:43:04;;;;;;;10.02;5.63;;;;;;;15.18;72.93;96075.88;5073009;28;20217;-82
2022/10/30 04:45:32;;;;;;;9.20;5.53;;;;;;;15.11;73.03;96069.84;5073767;28;20204;-82
2022/10/30 04:48:02;;;;;;;12.23;5.80;;;;;;;15.00;73.71;96074.78;5072238;28;20683;-82
2022/10/30 04:50:29;;;;;;;13.23;6.20;;;;;;;14.92;73.76;96075.72;5069400;28;20227;-80
2022/10/30 04:52:59;;;;;;;12.75;6.03;;;;;;;14.84;74.25;96068.09;5072933;28;20220;-82
2022/10/30 04:55:27;;;;;;;8.77;6.22;;;;;;;14.88;73.92;96065.91;5067341;28;20197;-81
2022/10/30 04:57:56;;;;;;;9.10;6.15;;;;;;;14.66;74.63;96073.75;5073208;28;20197;-80
2022/10/30 05:00:22;;;;;;;9.65;5.70;;;;;;;14.76;74.59;96061.28;5072817;28;20193;-81
2022/10/30 05:02:49;;;;;;;9.32;5.38;;;;;;;14.73;74.87;96058.25;5072982;28;20197;-82
2022/10/30 05:05:15;;;;;;;8.80;4.95;;;;;;;14.80;74.57;96059.13;5073092;28;20692;-81
2022/10/30 05:07:42;;;;;;;8.93;5.13;;;;;;;14.91;74.13;96057.75;5073616;28;20197;-82
2022/10/30 05:10:12;;;;;;;10.48;5.45;;;;;;;15.00;73.73;96064.41;5072368;28;20212;-81
2022/10/30 05:12:40;;;;;;;12.35;5.72;;;;;;;15.03;73.17;96049.25;5072748;28;20204;-82
2022/10/30 05:15:07;;;;;;;8.73;5.03;;;;;;;15.11;73.18;96048.28;5072510;28;20439;-83
2022/10/30 05:17:34;;;;;;;11.68;5.50;;;;;;;15.14;72.88;96043.53;5075452;28;20205;-82
2022/10/30 05:20:00;;;;;;;10.90;5.95;;;;;;;15.17;72.49;96045.72;5073070;28;20204;-81
2022/10/30 05:22:27;;;;;;;9.95;4.90;;;;;;;15.23;72.01;96041.53;5072999;28;20228;-81
2022/10/30 05:24:53;;;;;;;10.07;4.85;;;;;;;15.31;71.64;96040.59;5072447;28;20216;-81
2022/10/30 05:27:22;;;;;;;7.00;4.93;;;;;;;15.36;71.00;96038.22;5072727;28;20208;-81
2022/10/30 05:29:50;;;;;;;9.90;5.20;;;;;;;15.40;70.88;96036.81;5073313;28;20193;-80
2022/10/30 05:32:16;;;;;;;8.10;5.65;;;;;;;15.40;70.81;96042.78;5072558;28;20189;-82
2022/10/30 05:34:43;;;;;;;11.45;5.13;;;;;;;15.43;70.71;96044.19;5072256;28;20220;-81
2022/10/30 05:37:09;;;;;;;11.93;5.03;;;;;;;15.44;70.40;96041.41;5072133;28;20201;-81
2022/10/30 05:39:35;;;;;;;11.63;5.30;;;;;;;15.45;70.27;96043.03;5072485;28;20193;-81
2022/10/30 05:42:02;;;;;;;11.18;4.97;;;;;;;15.42;70.37;96050.38;5072580;28;20593;-80
2022/10/30 05:44:28;;;;;;;10.15;5.35;;;;;;;15.41;70.45;96048.78;5073567;28;20715;-81
2022/10/30 05:46:56;;;;;;;8.15;4.75;;;;;;;15.43;70.36;96052.00;5072143;28;20672;-82
2022/10/30 05:49:23;;;;;;;7.43;4.75;;;;;;;15.39;70.74;96049.00;5073039;28;20213;-81
2022/10/30 05:51:49;;;;;;;8.40;4.53;;;;;;;15.34;70.15;96051.38;5073080;28;20192;-81
2022/10/30 05:54:15;;;;;;;9.23;4.68;;;;;;;15.28;70.21;96041.78;5072462;28;20209;-81
2022/10/30 05:56:42;;;;;;;7.85;4.70;;;;;;;15.24;70.27;96045.75;5073117;28;20189;-81
2022/10/30 05:59:08;;;;;;;10.05;4.80;;;;;;;15.26;70.41;96040.34;5073413;28;20204;-82
2022/10/30 06:01:35;;;;;;;8.63;4.65;;;;;;;15.25;70.20;96038.75;5072553;28;20603;-80
2022/10/30 06:04:03;;;;;;;7.47;4.30;;;;;;;15.30;69.34;96042.38;5072629;28;20581;-82
2022/10/30 06:06:29;;;;;;;10.40;4.30;;;;;;;15.35;69.16;96039.22;5067188;28;20649;-82
2022/10/30 06:08:56;;;;;;;7.82;3.78;;;;;;;15.40;68.77;96037.59;5072328;28;20204;-82
2022/10/30 06:11:22;;;;;;;8.20;4.07;;;;;;;15.45;68.62;96035.22;5072565;28;20538;-80
2022/10/30 06:13:49;;;;;;;9.30;4.40;;;;;;;15.45;68.95;96042.22;5072687;28;20303;-82
2022/10/30 06:16:15;;;;;;;6.00;4.60;;;;;;;15.50;69.00;96045.84;5071933;28;20203;-82
2022/10/30 06:18:42;;;;;;;8.52;4.20;;;;;;;15.42;69.18;96048.59;5072927;28;20200;-81
2022/10/30 06:21:10;;;;;;;9.45;4.25;;;;;;;15.42;69.01;96042.59;5069273;28;20223;-82
2022/10/30 06:23:36;;;;;;;10.68;4.20;;;;;;;15.42;69.31;96035.63;5051998;28;20221;-81
2022/10/30 06:26:02;;;;;;;9.00;4.93;;;;;;;15.40;69.29;96042.78;5051954;28;20197;-81
2022/10/30 06:28:29;;;;;;;8.32;5.25;;;;;;;15.51;69.05;96041.44;5052127;28;20205;-81
2022/10/30 06:30:55;;;;;;;10.77;4.53;;;;;;;15.63;68.80;96045.09;5051766;28;20578;-81
2022/10/30 06:33:22;;;;;;;13.68;4.38;;;;;;;15.73;67.49;96044.72;5064972;28;20225;-82
2022/10/30 06:35:49;;;;;;;10.48;4.28;;;;;;;15.88;66.54;96040.16;5072278;28;20200;-81
2022/10/30 06:38:17;;;;;;;9.85;4.18;;;;;;;16.06;66.14;96034.38;5071596;28;20205;-81
2022/10/30 06:40:43;;;;;;;10.00;5.07;;;;;;;16.37;70.03;96049.34;5071986;28;20224;-81
2022/10/30 06:43:10;;;;;;;12.23;5.00;;;;;;;16.66;68.33;96043.75;5067017;28;20224;-80
2022/10/30 06:45:36;;;;;;;13.68;4.50;;;;;;;16.95;69.26;96047.69;5070590;28;20201;-83
2022/10/30 06:48:03;;;;;;;9.80;4.43;;;;;;;17.22;66.52;96046.59;5070033;28;20207;-82
2022/10/30 06:50:29;;;;;;;9.27;4.47;;;;;;;17.47;65.33;96038.09;5070204;28;20613;-82
2022/10/30 06:52:56;;;;;;;8.65;4.20;;;;;;;17.77;65.45;96044.34;5070000;28;20658;-81
2022/10/30 06:55:25;;;;;;;8.60;3.92;;;;;;;18.14;64.15;96041.88;5070413;28;20211;-80
2022/10/30 06:57:55;;;;;;;10.85;3.90;;;;;;;18.47;61.23;96036.41;5070888;28;20208;-82
2022/10/30 07:00:22;;;;;;;8.50;4.10;;;;;;;18.79;60.35;96037.13;5069559;28;20213;-83
2022/10/30 07:02:58;;;;;;;8.65;4.07;;;;;;;19.18;60.42;96039.31;5064200;28;20221;-81
2022/10/30 07:05:25;;;;;;;9.50;3.97;;;;;;;19.31;59.24;96043.56;5068911;28;20200;-82
2022/10/30 07:07:51;;;;;;;8.77;4.53;;;;;;;19.61;58.25;96038.41;5069449;28;20200;-82
2022/10/30 07:10:18;;;;;;;8.20;4.07;;;;;;;19.95;57.80;96042.16;5067983;28;20205;-82
2022/10/30 07:12:53;;;;;;;8.75;4.05;;;;;;;20.25;56.43;96042.06;5067823;28;20668;-81
2022/10/30 07:15:19;;;;;;;8.95;3.95;;;;;;;20.46;55.65;96044.19;5068672;28;20843;-82
2022/10/30 07:17:52;;;;;;;13.75;3.78;;;;;;;20.43;55.71;96043.81;5064993;28;20196;-82
2022/10/30 07:20:19;;;;;;;7.00;3.63;;;;;;;20.35;55.20;96045.75;5068392;28;20224;-81
2022/10/30 07:22:45;;;;;;;8.30;3.40;;;;;;;20.17;55.04;96055.50;5068183;28;20236;-82
2022/10/30 07:25:11;;;;;;;7.80;3.38;;;;;;;19.97;55.09;96055.78;5068284;28;20197;-83
2022/10/30 07:27:41;;;;;;;8.45;3.38;;;;;;;19.92;56.25;96051.22;5069167;28;20200;-82
2022/10/30 07:30:11;;;;;;;6.15;3.63;;;;;;;20.04;55.61;96059.09;5067894;28;20184;-81
2022/10/30 07:32:37;;;;;;;9.40;3.65;;;;;;;20.18;54.33;96059.72;5068217;28;20196;-82
2022/10/30 07:35:19;;;;;;;9.75;3.28;;;;;;;20.34;54.20;96054.59;5067264;28;20201;-88
2022/10/30 07:37:45;;;;;;;8.52;3.63;;;;;;;20.41;52.82;96057.13;5062226;28;20205;-83
2022/10/30 07:40:11;;;;;;;9.65;3.75;;;;;;;20.41;51.75;96057.13;5068485;28;20567;-82
2022/10/30 07:42:38;;;;;;;10.68;3.80;;;;;;;20.49;51.16;96062.03;5068760;28;20208;-82
2022/10/30 07:45:05;;;;;;;7.40;3.65;;;;;;;20.62;51.13;96053.97;5068993;28;20211;-83
2022/10/30 07:47:33;;;;;;;9.05;4.00;;;;;;;20.83;50.84;96063.06;5065060;28;20217;-81
2022/10/30 07:49:59;;;;;;;9.88;3.58;;;;;;;20.89;49.56;96054.31;5068541;28;20302;-83
2022/10/30 07:52:30;;;;;;;8.57;3.60;;;;;;;21.02;49.34;96063.72;5068890;28;20203;-80
2022/10/30 07:54:57;;;;;;;8.25;3.55;;;;;;;20.94;49.09;96054.41;5068397;28;20684;-82
2022/10/30 07:57:24;;;;;;;9.15;3.50;;;;;;;20.92;49.58;96063.53;5061431;28;20569;-82
2022/10/30 07:59:50;;;;;;;7.50;3.38;;;;;;;20.81;49.53;96061.69;5068733;28;20197;-81
2022/10/30 08:02:16;;;;;;;8.23;3.50;;;;;;;20.82;50.06;96061.47;5068006;28;20216;-81
2022/10/30 08:04:44;;;;;;;8.18;3.20;;;;;;;20.80;49.99;96071.34;5066159;28;20216;-81
2022/10/30 08:07:11;;;;;;;6.25;3.28;;;;;;;20.96;50.40;96065.47;5070430;28;20196;-82
2022/10/30 08:09:37;;;;;;;7.90;3.83;;;;;;;21.11;50.15;96070.22;5072246;28;20196;-82
2022/10/30 08:12:04;;;;;;;9.50;3.75;;;;;;;21.32;50.32;96061.78;5071320;28;20587;-81
2022/10/30 08:14:31;;;;;;;7.00;3.63;;;;;;;21.55;49.81;96066.13;5071784;28;20227;-83
2022/10/30 08:16:57;;;;;;;7.38;3.38;;;;;;;21.70;49.68;96063.81;5072016;28;20668;-81
2022/10/30 08:19:24;;;;;;;8.20;3.53;;;;;;;21.82;49.58;96063.75;5071603;28;20201;-82
2022/10/30 08:21:52;;;;;;;7.85;3.63;;;;;;;21.87;49.66;96060.41;5072549;28;20227;-82
2022/10/30 08:24:18;;;;;;;11.82;3.58;;;;;;;21.88;49.69;96060.19;5072395;28;20289;-83
2022/10/30 08:26:45;;;;;;;9.13;3.47;;;;;;;21.85;48.00;96054.63;5074278;28;20672;-82
2022/10/30 08:29:11;;;;;;;9.30;3.78;;;;;;;21.87;48.66;96060.41;5073387;28;20208;-82
2022/10/30 08:31:37;;;;;;;9.65;3.38;;;;;;;21.89;47.13;96061.00;5067105;28;20189;-82
2022/10/30 08:34:05;;;;;;;7.40;3.45;;;;;;;21.93;47.68;96054.25;5072751;28;20224;-81
2022/10/30 08:36:31;;;;;;;9.40;3.70;;;;;;;21.96;46.85;96051.94;5066844;28;20189;-81
2022/10/30 08:38:59;;;;;;;5.13;3.03;;;;;;;21.97;46.00;96050.91;5073332;28;20197;-82
2022/10/30 08:41:25;;;;;;;8.55;4.07;;;;;;;22.03;46.91;96060.47;5072301;28;20212;-82
2022/10/30 08:43:52;;;;;;;8.43;3.25;;;;;;;22.12;46.59;96060.91;5074448;28;20212;-82
2022/10/30 08:46:18;;;;;;;10.40;3.67;;;;;;;22.29;47.62;96063.53;5073029;28;20196;-82
2022/10/30 08:48:45;;;;;;;6.90;3.38;;;;;;;22.34;47.12;96067.00;5072878;28;20192;-82
2022/10/30 08:51:11;;;;;;;7.80;2.92;;;;;;;22.30;45.32;96059.88;5073514;28;20197;-82
2022/10/30 08:53:38;;;;;;;11.18;3.40;;;;;;;22.35;46.64;96068.59;5072200;28;20205;-81
2022/10/30 08:56:06;;;;;;;8.18;3.20;;;;;;;22.35;45.42;96060.72;5070248;28;20197;-82
2022/10/30 08:58:33;;;;;;;7.35;3.63;;;;;;;22.37;46.32;96048.16;5074076;28;20258;-82
2022/10/30 09:00:59;;;;;;;9.35;3.13;;;;;;;22.52;46.34;96058.09;5073658;28;20217;-82
2022/10/30 09:03:26;;;;;;;7.07;3.33;;;;;;;22.71;47.11;96048.13;5073724;28;20225;-83
2022/10/30 09:05:52;;;;;;;10.25;3.25;;;;;;;22.79;46.76;96047.75;5072812;28;20193;-82
2022/10/30 09:08:22;;;;;;;7.95;3.35;;;;;;;22.81;44.50;96043.06;5073813;28;20637;-82
2022/10/30 09:10:54;;;;;;;13.07;3.67;;;;;;;22.88;44.06;96048.97;5072923;28;20239;-82
2022/10/30 09:13:22;;;;;;;9.30;3.53;;;;;;;22.90;45.51;96038.97;5073444;28;20356;-83
2022/10/30 09:15:48;;;;;;;13.00;5.07;;;;;;;23.00;45.42;96048.84;5072951;28;20199;-84
2022/10/30 09:18:15;;;;;;;12.05;4.85;;;;;;;23.19;45.59;96054.59;5073354;28;20509;-84
2022/10/30 09:20:41;;;;;;;10.32;3.63;;;;;;;23.36;44.74;96047.44;5075724;28;20193;-83
2022/10/30 09:23:08;;;;;;;8.27;3.50;;;;;;;23.49;44.46;96049.69;5073438;28;20224;-82
2022/10/30 09:25:35;;;;;;;8.82;3.22;;;;;;;23.59;43.33;96049.03;5072751;28;20205;-83
2022/10/30 09:28:01;;;;;;;13.90;3.40;;;;;;;23.55;43.19;96040.84;5072877;28;20193;-81
2022/10/30 09:30:29;;;;;;;8.98;2.95;;;;;;;23.45;43.59;96047.81;5071240;28;20200;-85
2022/10/30 09:32:56;;;;;;;10.60;3.67;;;;;;;23.49;44.38;96041.00;5071251;28;20221;-85
2022/10/30 09:35:23;;;;;;;9.52;3.33;;;;;;;23.40;45.05;96045.91;5070995;28;20212;-86
2022/10/30 09:37:49;;;;;;;7.68;2.97;;;;;;;23.47;43.88;96045.72;5072209;28;20193;-85
2022/10/30 09:40:23;;;;;;;12.18;3.35;;;;;;;23.58;43.47;96044.81;5071958;28;20262;-81
2022/10/30 09:42:50;;;;;;;8.25;3.33;;;;;;;23.71;43.34;96047.06;5071969;28;20217;-82
2022/10/30 09:45:45;;;;;;;8.00;2.95;;;;;;;23.75;42.67;96051.56;5071846;28;20197;-82
2022/10/30 09:48:35;;;;;;;6.60;2.88;;;;;;;23.73;42.96;96045.78;5071983;28;20204;-82
2022/10/30 09:51:13;;;;;;;8.13;3.30;;;;;;;23.70;43.01;96051.50;5069423;28;20223;-82
2022/10/30 09:53:49;;;;;;;10.05;3.55;;;;;;;23.72;44.37;96049.44;5072618;28;20285;-83
2022/10/30 09:56:23;;;;;;;8.32;3.08;;;;;;;23.73;44.05;96048.41;5072444;28;20200;-83
2022/10/30 09:59:05;;;;;;;9.35;3.30;;;;;;;23.65;43.62;96048.06;5065816;28;20207;-82
2022/10/30 10:01:41;;;;;;;7.70;3.25;;;;;;;23.74;44.54;96044.72;5072151;28;20196;-82
2022/10/30 10:04:22;;;;;;;6.45;3.05;;;;;;;23.82;44.33;96046.13;5071442;28;20224;-81
2022/10/30 10:06:52;;;;;;;8.93;2.95;;;;;;;23.93;44.18;96039.91;5066472;28;20208;-81
2022/10/30 10:09:22;;;;;;;8.68;3.60;;;;;;;23.99;43.86;96041.56;5071618;28;20199;-82
2022/10/30 10:11:54;;;;;;;7.72;3.20;;;;;;;24.14;44.01;96043.53;5070943;28;20204;-81
2022/10/30 10:14:23;;;;;;;8.77;3.65;;;;;;;24.19;43.57;96048.03;5071930;28;20224;-82
2022/10/30 10:16:53;;;;;;;9.10;3.28;;;;;;;24.26;44.06;96051.25;5071262;28;20199;-81
2022/10/30 10:19:21;;;;;;;8.55;3.33;;;;;;;24.23;43.78;96049.94;5070996;28;20223;-83
2022/10/30 10:21:54;;;;;;;7.45;3.20;;;;;;;24.29;44.53;96048.94;5071305;28;20200;-82
2022/10/30 10:24:24;;;;;;;6.75;3.13;;;;;;;24.35;44.10;96049.78;5070508;28;20726;-83
2022/10/30 10:26:57;;;;;;;9.15;3.40;;;;;;;24.38;44.10;96044.00;5070488;28;20207;-81
2022/10/30 10:29:33;;;;;;;10.88;3.33;;;;;;;24.44;44.73;96053.50;5072326;28;20779;-81
2022/10/30 10:32:26;;;;;;;8.80;3.10;;;;;;;24.47;44.87;96046.94;5071585;28;20192;-83
2022/10/30 10:35:10;;;;;;;12.82;3.85;;;;;;;24.51;44.36;96046.19;5065660;28;20213;-83
2022/10/30 10:37:44;;;;;;;8.70;3.75;;;;;;;24.55;44.08;96047.28;5071261;28;20193;-81
2022/10/30 10:40:26;;;;;;;8.07;3.30;;;;;;;24.43;43.71;96044.84;5071711;28;20205;-81
2022/10/30 10:43:20;;;;;;;9.05;3.38;;;;;;;24.26;43.01;96046.78;5066652;28;20602;-81
2022/10/30 10:46:22;;;;;;;7.20;3.05;;;;;;;24.15;44.19;96046.94;5066658;28;20284;-85
2022/10/30 10:49:03;;;;;;;8.85;3.30;;;;;;;24.16;43.36;96048.53;5063462;28;20286;-81
2022/10/30 10:51:33;;;;;;;8.27;3.30;;;;;;;24.17;44.24;96040.38;5071394;28;20607;-83
2022/10/30 10:54:04;;;;;;;8.55;3.25;;;;;;;24.24;44.63;96048.13;5071439;28;20569;-83
2022/10/30 10:56:34;;;;;;;10.50;3.80;;;;;;;24.19;43.89;96043.56;5070576;28;20196;-81
2022/10/30 10:59:07;;;;;;;9.13;3.63;;;;;;;24.20;44.05;96047.78;5070973;28;20200;-81
2022/10/30 11:01:38;;;;;;;7.45;3.63;;;;;;;24.21;43.89;96040.69;5070404;28;20196;-82
2022/10/30 11:04:14;;;;;;;8.63;3.25;;;;;;;24.27;44.33;96040.50;5070646;28;20220;-81
2022/10/30 11:06:46;;;;;;;12.38;3.90;;;;;;;24.30;43.30;96034.72;5070222;28;20211;-83
2022/10/30 11:09:16;;;;;;;9.63;3.42;;;;;;;24.35;43.64;96031.34;5071257;28;20192;-84
2022/10/30 11:11:43;;;;;;;10.57;3.72;;;;;;;24.39;44.00;96032.44;5070744;28;20188;-81
2022/10/30 11:14:14;;;;;;;7.18;3.17;;;;;;;24.45;44.06;96029.56;5063510;28;20220;-82
2022/10/30 11:16:51;;;;;;;9.70;3.83;;;;;;;24.48;43.58;96020.38;5070599;28;20195;-82
2022/10/30 11:19:19;;;;;;;7.30;3.28;;;;;;;24.44;43.11;96019.28;5070514;28;20196;-81
2022/10/30 11:21:51;;;;;;;10.10;3.15;;;;;;;24.48;43.74;96025.63;5071158;28;20193;-83
2022/10/30 11:24:28;;;;;;;9.80;3.60;;;;;;;24.53;43.91;96019.63;5070350;28;20259;-83
2022/10/30 11:26:56;;;;;;;10.15;3.55;;;;;;;24.54;43.32;96019.38;5066134;28;20196;-82
2022/10/30 11:29:25;;;;;;;6.30;3.08;;;;;;;24.59;42.54;96016.78;5070458;28;20197;-81
2022/10/30 11:32:01;;;;;;;8.45;2.95;;;;;;;24.57;42.48;96016.25;5070982;28;20185;-82
2022/10/30 11:34:32;;;;;;;7.68;3.40;;;;;;;24.50;42.38;96010.38;5071178;28;20243;-81
2022/10/30 11:36:59;;;;;;;8.90;4.20;;;;;;;24.50;42.55;96010.38;5072020;28;20200;-82